Time;durP1;ratioP1;P1;durP2;ratioP2;P2;SDS_P1;SDS_P2;PMS_P1;PMS_P2;Temp;Humidity;BMP_temperature;BMP_pressure;BME280_temperature;BME280_humidity;BME280_pressure;Samples;Min_cycle;Max_cycle;Signal;HPM_P1;HPM_P2
2023/01/17 00:01:31;;;;;;;2.75;1.33;;;;;;;-0.07;100.00;97681.53;5109555;27;20089;-82
2023/01/17 00:12:15;;;;;;;2.28;1.30;;;;;;;-0.07;100.00;97686.69;5128143;27;20780;-81
2023/01/17 00:14:42;;;;;;;3.08;1.40;;;;;;;0.03;100.00;97693.09;5114201;28;20047;-82
2023/01/17 00:17:09;;;;;;;3.45;1.27;;;;;;;-0.05;100.00;97666.91;5123071;27;20054;-82
2023/01/17 01:35:52;;;;;;;1.95;1.30;;;;;;;-0.02;100.00;97695.03;5131953;28;20054;-82
2023/01/17 01:38:22;;;;;;;4.15;1.40;;;;;;;-0.18;100.00;97691.47;5109294;28;20043;-82
2023/01/17 01:40:52;;;;;;;4.80;1.55;;;;;;;0.01;100.00;97702.63;5122260;28;20051;-82
2023/01/17 01:43:39;;;;;;;3.50;1.50;;;;;;;-0.27;100.00;97662.66;5132076;28;20043;-81
2023/01/17 01:46:08;;;;;;;2.55;1.55;;;;;;;0.05;100.00;97696.44;5111418;28;20087;-81
2023/01/17 01:48:41;;;;;;;2.63;1.20;;;;;;;-0.13;100.00;97692.94;5123696;28;20066;-82
2023/01/17 01:51:12;;;;;;;3.15;1.35;;;;;;;-0.02;100.00;97695.03;5111319;28;20068;-82
2023/01/17 01:53:44;;;;;;;5.60;1.92;;;;;;;-0.13;100.00;97694.66;5130835;28;20049;-82
2023/01/17 01:56:13;;;;;;;2.95;1.23;;;;;;;-0.10;100.00;97691.97;5112746;28;20043;-82
2023/01/17 01:58:44;;;;;;;2.10;1.30;;;;;;;-0.01;100.00;97689.00;5132300;28;20051;-82
2023/01/17 02:01:11;;;;;;;2.95;1.30;;;;;;;-0.01;100.00;97694.16;5112985;28;20043;-82
2023/01/17 02:03:40;;;;;;;2.85;1.48;;;;;;;-0.21;100.00;97659.84;5107012;28;20575;-82
2023/01/17 02:06:34;;;;;;;2.50;1.20;;;;;;;-0.15;100.00;97683.63;5126337;28;20052;-82
2023/01/17 02:09:05;;;;;;;;;;;;;;;0.05;100.00;97695.59;5110746;28;20492;-81
2023/01/17 02:11:34;;;;;;;2.08;1.30;;;;;;;0.00;100.00;97695.81;5130412;28;20381;-81
2023/01/17 02:14:01;;;;;;;2.28;1.40;;;;;;;-0.01;100.00;97699.28;5132187;28;20050;-82
2023/01/17 02:16:50;;;;;;;1.70;1.30;;;;;;;0.03;100.00;97692.28;5130165;28;20483;-82
2023/01/17 02:19:29;;;;;;;3.97;1.40;;;;;;;0.05;100.00;97693.03;5113482;28;20365;-82
2023/01/17 02:22:33;;;;;;;2.50;1.50;;;;;;;0.06;100.00;97694.72;5112385;28;20472;-82
2023/01/17 02:25:17;;;;;;;1.77;1.30;;;;;;;-0.08;100.00;97701.28;5131017;28;20104;-82
2023/01/17 02:28:02;;;;;;;4.78;2.05;;;;;;;-0.17;100.00;97696.53;5118716;28;20096;-82
2023/01/17 02:30:29;;;;;;;1.85;1.23;;;;;;;-0.11;100.00;97698.00;5099439;28;20080;-82
2023/01/17 02:33:19;;;;;;;6.53;2.50;;;;;;;-0.22;100.00;97701.88;5131925;28;20050;-82
2023/01/17 02:36:04;;;;;;;2.15;1.35;;;;;;;-0.07;100.00;97704.69;5114310;28;20109;-82
2023/01/17 02:38:55;;;;;;;3.00;1.40;;;;;;;-0.05;100.00;97705.47;5114231;27;20465;-81
2023/01/17 02:41:28;;;;;;;6.85;1.63;;;;;;;-0.25;100.00;97684.03;5130500;27;20055;-82
2023/01/17 02:43:54;;;;;;;;;;;;;;;0.04;100.00;97699.09;5135646;27;20046;-81
2023/01/17 02:46:21;;;;;;;5.55;1.60;;;;;;;-0.08;100.00;97703.84;5133382;27;19923;-82
2023/01/17 02:48:49;;;;;;;2.08;1.42;;;;;;;-0.11;100.00;97698.00;5132700;27;20043;-81
2023/01/17 02:51:31;;;;;;;2.90;1.30;;;;;;;0.00;100.00;97708.69;5116906;27;20074;-82
2023/01/17 02:54:04;;;;;;;2.58;1.40;;;;;;;0.02;100.00;97706.03;5116671;27;20051;-82
2023/01/17 02:56:37;;;;;;;3.90;1.77;;;;;;;-0.03;100.00;97707.06;5122392;27;20119;-81
2023/01/17 02:59:45;;;;;;;2.25;1.50;;;;;;;0.08;100.00;97701.44;5126190;27;20055;-82
2023/01/17 03:02:33;;;;;;;3.47;2.22;;;;;;;0.10;100.00;97701.41;5122506;27;20094;-81
2023/01/17 03:05:07;;;;;;;8.27;1.55;;;;;;;0.01;100.00;97689.75;5132769;27;20047;-82
2023/01/17 03:07:35;;;;;;;5.47;1.45;;;;;;;-0.08;100.00;97690.16;5114465;27;20051;-82
2023/01/17 03:10:04;;;;;;;2.13;1.27;;;;;;;-0.13;100.00;97685.22;5129502;27;20047;-82
2023/01/17 03:12:34;;;;;;;4.10;1.30;;;;;;;-0.53;100.00;97632.94;5114419;27;20058;-81
2023/01/17 03:15:02;;;;;;;1.75;1.35;;;;;;;-0.11;100.00;97687.72;5108244;27;20043;-82
2023/01/17 03:17:31;;;;;;;3.05;1.40;;;;;;;-0.10;100.00;97684.25;5133467;27;20050;-82
2023/01/17 03:19:58;;;;;;;3.85;1.20;;;;;;;-0.13;100.00;97679.25;5116228;27;20051;-82
2023/01/17 03:22:24;;;;;;;3.97;1.50;;;;;;;-0.11;100.00;97675.69;5131429;27;20476;-83
2023/01/17 03:24:51;;;;;;;2.80;1.40;;;;;;;-0.08;100.00;97674.72;5116196;27;20084;-82
2023/01/17 03:27:18;;;;;;;10.23;2.47;;;;;;;-0.32;100.00;97636.34;5114911;27;20410;-83
2023/01/17 03:29:45;;;;;;;2.10;1.20;;;;;;;-0.13;100.00;97656.91;5131905;27;20051;-82
2023/01/17 03:32:11;;;;;;;5.88;1.35;;;;;;;-0.19;100.00;97657.19;5131852;27;20055;-82
2023/01/17 03:34:38;;;;;;;3.17;1.30;;;;;;;-0.50;100.00;97607.09;5134745;27;20088;-82
2023/01/17 03:37:05;;;;;;;1.65;1.20;;;;;;;-0.32;100.00;97653.47;5132546;27;20487;-82
2023/01/17 03:39:31;;;;;;;5.03;1.50;;;;;;;-0.40;100.00;97638.38;5133660;27;20047;-82
2023/01/17 03:41:58;;;;;;;2.63;1.33;;;;;;;-0.12;100.00;97668.88;5108705;28;20385;-82
2023/01/17 03:44:24;;;;;;;3.65;1.50;;;;;;;-0.14;100.00;97691.28;5119754;27;20047;-82
2023/01/17 03:46:51;;;;;;;2.95;1.40;;;;;;;-0.05;100.00;97698.59;5108454;28;20054;-82
2023/01/17 03:49:18;;;;;;;3.85;1.38;;;;;;;-0.07;100.00;97697.81;5121201;27;20100;-82
2023/01/17 03:51:44;;;;;;;4.50;1.30;;;;;;;0.01;100.00;97704.38;5133852;27;20051;-82
2023/01/17 03:54:11;;;;;;;2.58;1.30;;;;;;;-0.41;100.00;97652.13;5113432;27;20052;-82
2023/01/17 03:56:38;;;;;;;2.47;1.23;;;;;;;-0.10;100.00;97681.69;5132176;27;20503;-82
2023/01/17 03:59:05;;;;;;;3.25;1.30;;;;;;;-0.10;100.00;97687.66;5128976;27;20441;-82
2023/01/17 04:01:31;;;;;;;2.58;1.30;;;;;;;-0.20;100.00;97686.38;5127050;27;20408;-81
2023/01/17 04:03:58;;;;;;;3.67;1.30;;;;;;;-0.21;100.00;97677.84;5125754;27;20523;-82
2023/01/17 04:06:25;;;;;;;1.83;1.20;;;;;;;-0.43;100.00;97652.19;5128111;27;20050;-82
2023/01/17 04:08:52;;;;;;;2.25;1.20;;;;;;;-0.16;100.00;97690.50;5133378;27;20047;-82
2023/01/17 04:11:19;;;;;;;2.40;1.40;;;;;;;-0.16;100.00;97680.22;5133366;27;20043;-82
2023/01/17 04:13:46;;;;;;;2.63;1.35;;;;;;;-0.36;100.00;97660.47;5111998;28;20427;-82
2023/01/17 04:16:15;;;;;;;3.03;1.40;;;;;;;0.00;100.00;97690.69;5108950;27;20095;-82
2023/01/17 04:18:43;;;;;;;5.32;1.48;;;;;;;-0.14;100.00;97693.84;5115336;27;20051;-82
2023/01/17 04:21:10;;;;;;;2.95;1.40;;;;;;;-0.15;100.00;97675.91;5114942;27;20377;-82
2023/01/17 04:23:37;;;;;;;2.28;1.25;;;;;;;-0.20;100.00;97684.63;5106151;27;20051;-82
2023/01/17 04:26:04;;;;;;;5.50;1.30;;;;;;;-0.35;100.00;97687.88;5111783;27;20051;-82
2023/01/17 04:28:30;;;;;;;2.03;1.30;;;;;;;-0.23;100.00;97686.50;5131375;27;20043;-82
2023/01/17 04:30:58;;;;;;;3.70;1.33;;;;;;;-0.24;100.00;97674.56;5107793;27;20400;-82
2023/01/17 04:33:25;;;;;;;5.45;1.50;;;;;;;-0.42;100.00;97648.72;5133027;27;20043;-82
2023/01/17 04:35:53;;;;;;;3.63;1.40;;;;;;;-0.21;100.00;97682.16;5111175;28;20058;-82
2023/01/17 04:38:20;;;;;;;2.30;1.20;;;;;;;-0.41;100.00;97654.69;5113158;27;20765;-82
2023/01/17 04:40:47;;;;;;;2.47;1.33;;;;;;;-0.59;100.00;97640.91;5132996;27;20055;-82
2023/01/17 04:43:15;;;;;;;2.20;1.25;;;;;;;-0.45;100.00;97656.56;5114712;27;20050;-82
2023/01/17 04:45:42;;;;;;;3.08;1.40;;;;;;;-0.41;100.00;97664.97;5126650;27;20044;-82
2023/01/17 04:48:11;;;;;;;4.95;1.40;;;;;;;-0.39;100.00;97661.47;5107455;28;20047;-82
2023/01/17 04:50:38;;;;;;;3.75;1.38;;;;;;;-0.19;100.00;97688.06;5128353;27;20043;-82
2023/01/17 04:53:05;;;;;;;2.65;1.30;;;;;;;-0.47;100.00;97640.38;5114747;27;20043;-82
2023/01/17 04:55:32;;;;;;;4.18;1.30;;;;;;;-0.23;100.00;97673.66;5114277;27;20050;-82
2023/01/17 04:57:59;;;;;;;2.22;1.20;;;;;;;-0.29;100.00;97663.63;5131423;27;20050;-82
2023/01/17 05:00:25;;;;;;;3.40;1.30;;;;;;;-0.36;100.00;97650.19;5132290;27;20358;-82
2023/01/17 05:02:52;;;;;;;2.47;1.30;;;;;;;-0.28;100.00;97676.44;5131470;27;20055;-82
2023/01/17 05:05:19;;;;;;;3.28;1.77;;;;;;;-0.32;100.00;97656.91;5114191;27;20096;-82
2023/01/17 05:07:56;;;;;;;4.93;1.40;;;;;;;-0.36;100.00;97659.66;5128531;27;20051;-82
2023/01/17 05:10:24;;;;;;;1.73;1.20;;;;;;;-0.30;100.00;97677.38;5111562;28;20497;-82
2023/01/17 05:12:54;;;;;;;1.98;1.25;;;;;;;-0.26;100.00;97681.50;5111945;28;20054;-82
2023/01/17 05:15:22;;;;;;;2.28;1.38;;;;;;;-0.52;100.00;97631.19;5129094;27;20058;-82
2023/01/17 05:17:51;;;;;;;3.88;1.38;;;;;;;-0.33;100.00;97667.25;5131568;27;20047;-82
2023/01/17 05:20:19;;;;;;;2.38;1.20;;;;;;;-0.49;100.00;97656.78;5114343;28;20055;-82
2023/01/17 05:22:54;;;;;;;2.42;1.20;;;;;;;-0.28;100.00;97681.56;5125922;27;20476;-82
2023/01/17 05:25:23;;;;;;;1.73;1.25;;;;;;;-0.25;100.00;97686.59;5132515;28;20047;-82
2023/01/17 05:27:50;;;;;;;1.90;1.20;;;;;;;-0.29;100.00;97682.47;5129515;28;20058;-82
2023/01/17 05:30:18;;;;;;;1.75;1.20;;;;;;;-0.33;100.00;97680.94;5109852;28;20044;-82
2023/01/17 05:32:49;;;;;;;2.45;1.30;;;;;;;-0.39;100.00;97688.88;5132380;28;20341;-82
2023/01/17 05:35:21;;;;;;;3.90;1.30;;;;;;;-0.41;100.00;97688.97;5122921;28;20405;-82
2023/01/17 05:37:48;;;;;;;1.58;1.20;;;;;;;-0.34;100.00;97684.38;5129782;28;20084;-83
2023/01/17 05:40:22;;;;;;;3.47;1.30;;;;;;;-0.33;100.00;97685.25;5103444;28;20055;-83
2023/01/17 05:42:51;;;;;;;2.20;1.30;;;;;;;-0.42;100.00;97684.72;5104617;28;20130;-82
2023/01/17 05:45:20;;;;;;;1.48;1.17;;;;;;;-0.36;100.00;97675.91;5100091;28;20518;-82
2023/01/17 05:47:49;;;;;;;1.98;1.35;;;;;;;-0.45;100.00;97666.84;5127886;28;20054;-82
2023/01/17 05:50:23;;;;;;;2.13;1.20;;;;;;;-0.27;100.00;97679.81;5103939;28;20125;-82
2023/01/17 05:52:57;;;;;;;1.60;1.10;;;;;;;-0.29;100.00;97690.16;5113766;28;20046;-82
2023/01/17 05:55:25;;;;;;;2.35;1.20;;;;;;;-0.41;100.00;97665.84;5114723;28;20396;-81
2023/01/17 05:57:53;;;;;;;5.03;1.40;;;;;;;-0.33;100.00;97680.94;5130643;28;20055;-82
2023/01/17 06:00:21;;;;;;;2.80;1.30;;;;;;;-0.29;100.00;97692.75;5104956;28;20058;-82
2023/01/17 06:02:48;;;;;;;3.03;1.30;;;;;;;-0.36;100.00;97696.47;5113856;28;20047;-83
2023/01/17 06:05:15;;;;;;;1.90;1.30;;;;;;;-0.37;100.00;97694.81;5131867;28;20043;-83
2023/01/17 06:07:44;;;;;;;2.25;1.20;;;;;;;-0.38;100.00;97681.09;5129883;28;20054;-82
2023/01/17 06:10:16;;;;;;;3.45;1.30;;;;;;;-0.33;100.00;97691.22;5110353;28;20465;-82
2023/01/17 06:12:44;;;;;;;2.85;1.20;;;;;;;-0.38;100.00;97685.44;5107175;28;20096;-82
2023/01/17 06:15:13;;;;;;;2.00;1.10;;;;;;;-0.30;100.00;97698.81;5117112;27;20050;-82
2023/01/17 06:17:40;;;;;;;5.43;1.50;;;;;;;-0.41;100.00;97691.53;5134897;27;20476;-82
2023/01/17 06:20:08;;;;;;;2.78;1.40;;;;;;;-0.34;100.00;97694.66;5103699;27;20058;-83
2023/01/17 06:22:35;;;;;;;3.10;1.40;;;;;;;-0.58;100.00;97658.81;5107100;27;20059;-82
2023/01/17 06:25:01;;;;;;;2.80;1.20;;;;;;;-0.42;100.00;97692.44;5108794;27;20062;-82
2023/01/17 06:27:28;;;;;;;1.55;1.15;;;;;;;-0.54;100.00;97671.56;5104637;28;20043;-82
2023/01/17 06:29:55;;;;;;;3.33;1.10;;;;;;;-0.65;100.00;97657.41;5128554;27;20051;-82
2023/01/17 06:32:22;;;;;;;3.67;1.25;;;;;;;-0.53;100.00;97662.91;5117328;27;20051;-83
2023/01/17 06:34:48;;;;;;;1.67;1.20;;;;;;;-0.54;100.00;97671.56;5129309;27;20097;-82
2023/01/17 06:37:15;;;;;;;2.17;1.25;;;;;;;-0.39;100.00;97689.75;5127021;27;20096;-82
2023/01/17 06:39:42;;;;;;;4.90;1.20;;;;;;;-0.45;100.00;97692.56;5129465;27;20062;-82
2023/01/17 06:42:08;;;;;;;1.45;1.10;;;;;;;-0.41;100.00;97682.97;5133559;27;20050;-82
2023/01/17 06:44:35;;;;;;;3.80;1.20;;;;;;;-0.46;100.00;97697.75;5131660;27;20043;-82
2023/01/17 06:47:02;;;;;;;2.97;1.33;;;;;;;-0.40;100.00;97693.19;5112732;27;20051;-84
2023/01/17 06:49:29;;;;;;;2.13;1.20;;;;;;;-0.48;100.00;97673.84;5105992;28;20067;-82
2023/01/17 06:51:55;;;;;;;1.95;1.20;;;;;;;-0.59;100.00;97657.13;5129078;27;21327;-82
2023/01/17 06:54:22;;;;;;;1.65;1.15;;;;;;;-0.60;100.00;97662.38;5108537;27;20484;-83
2023/01/17 06:56:49;;;;;;;2.90;1.30;;;;;;;-0.64;100.00;97653.94;5107655;28;20051;-82
2023/01/17 06:59:15;;;;;;;2.80;1.30;;;;;;;-0.48;100.00;97692.69;5112137;27;20042;-82
2023/01/17 07:01:42;;;;;;;2.20;1.30;;;;;;;-0.68;100.00;97649.00;5104758;28;20062;-82
2023/01/17 07:04:09;;;;;;;2.35;1.20;;;;;;;-0.55;100.00;97677.56;5129012;27;20552;-82
2023/01/17 07:06:36;;;;;;;2.75;1.25;;;;;;;-0.45;100.00;97697.69;5118169;27;20506;-82
2023/01/17 07:09:03;;;;;;;2.63;1.30;;;;;;;-0.51;100.00;97685.09;5129869;27;20096;-82
2023/01/17 07:11:30;;;;;;;2.35;1.30;;;;;;;-0.53;100.00;97681.78;5112516;27;20499;-82
2023/01/17 07:13:57;;;;;;;2.58;1.30;;;;;;;-0.65;100.00;97670.25;5109151;27;20049;-82
2023/01/17 07:16:24;;;;;;;1.63;1.30;;;;;;;-0.43;100.00;97702.78;5126690;27;20171;-84
2023/01/17 07:18:52;;;;;;;1.67;1.25;;;;;;;-0.72;100.00;97661.13;5106834;27;20047;-84
2023/01/17 07:21:18;;;;;;;2.53;1.40;;;;;;;-0.79;100.00;97670.81;5125464;27;20047;-83
2023/01/17 07:23:46;;;;;;;1.50;1.30;;;;;;;-0.48;100.00;97699.56;5129503;27;20513;-82
2023/01/17 07:26:16;;;;;;;3.83;1.48;;;;;;;-0.50;100.00;97689.34;5132970;27;20047;-83
2023/01/17 07:28:43;;;;;;;3.33;1.50;;;;;;;-0.54;100.00;97690.38;5125357;27;20439;-85
2023/01/17 07:31:10;;;;;;;5.47;1.30;;;;;;;-0.77;100.00;97655.34;5130578;27;20481;-86
2023/01/17 07:33:36;;;;;;;2.90;1.45;;;;;;;-0.58;100.00;97684.53;5128581;27;20090;-85
2023/01/17 07:36:08;;;;;;;2.25;1.20;;;;;;;-0.47;100.00;97696.09;5107134;27;20048;-85
2023/01/17 07:38:35;;;;;;;1.85;1.38;;;;;;;-0.45;100.00;97705.41;5127761;27;20396;-84
2023/01/17 07:41:02;;;;;;;3.47;1.40;;;;;;;-0.62;100.00;97677.00;5116377;27;20043;-86
2023/01/17 07:43:29;;;;;;;1.42;1.20;;;;;;;-0.93;100.00;97629.44;5113109;27;20426;-86
2023/01/17 07:45:56;;;;;;;1.30;1.10;;;;;;;-0.50;100.00;97709.06;5114609;27;20076;-85
2023/01/17 07:48:23;;;;;;;1.92;1.20;;;;;;;-0.77;100.00;97684.44;5110309;27;20062;-85
2023/01/17 07:50:53;;;;;;;2.95;1.27;;;;;;;-0.93;100.00;97659.44;5103817;27;20052;-86
2023/01/17 07:53:22;;;;;;;3.72;1.30;;;;;;;-0.93;100.00;97675.69;5109418;27;20056;-85
2023/01/17 07:55:49;;;;;;;2.80;1.30;;;;;;;-1.13;100.00;97666.22;5113184;27;20051;-86
2023/01/17 07:58:16;;;;;;;3.88;1.38;;;;;;;-1.28;100.00;97636.81;5130240;27;20051;-86
2023/01/17 08:00:43;;;;;;;3.85;1.40;;;;;;;-1.00;100.00;97666.53;5127362;27;20062;-84
2023/01/17 08:03:13;;;;;;;3.10;1.48;;;;;;;-1.07;100.00;97642.00;5132852;27;20054;-85
2023/01/17 08:05:42;;;;;;;3.40;1.40;;;;;;;-0.94;100.00;97663.72;5124281;27;20055;-85
2023/01/17 08:08:09;;;;;;;2.88;1.40;;;;;;;-1.23;100.00;97631.50;5111607;28;20405;-85
2023/01/17 08:10:36;;;;;;;2.83;1.25;;;;;;;-1.02;100.00;97652.94;5105775;27;20051;-84
2023/01/17 08:13:02;;;;;;;4.28;1.60;;;;;;;-0.90;100.00;97673.00;5115999;27;20051;-84
2023/01/17 08:15:29;;;;;;;4.47;1.60;;;;;;;-1.17;100.00;97641.53;5115888;27;20039;-84
2023/01/17 08:17:57;;;;;;;3.80;1.50;;;;;;;-1.32;100.00;97621.63;5113604;27;20103;-84
2023/01/17 08:20:25;;;;;;;4.38;1.60;;;;;;;-0.93;100.00;97685.13;5108684;28;20048;-84
2023/01/17 08:22:56;;;;;;;3.78;1.42;;;;;;;-1.22;100.00;97631.47;5115926;27;20131;-87
2023/01/17 08:25:24;;;;;;;3.45;1.50;;;;;;;-0.80;100.00;97694.00;5101807;27;20484;-86
2023/01/17 08:27:56;;;;;;;4.53;1.40;;;;;;;-0.66;100.00;97712.25;5114957;27;20043;-85
2023/01/17 08:30:23;;;;;;;3.90;1.52;;;;;;;-0.63;100.00;97707.00;5133937;27;20138;-85
2023/01/17 08:32:50;;;;;;;3.00;1.45;;;;;;;-0.99;100.00;97661.34;5114752;27;20054;-84
2023/01/17 08:35:18;;;;;;;5.07;1.70;;;;;;;-1.04;100.00;97647.84;5115465;27;20385;-85
2023/01/17 08:37:47;;;;;;;6.05;1.60;;;;;;;-1.19;100.00;97636.47;5131949;27;20426;-84
2023/01/17 08:40:18;;;;;;;4.20;1.40;;;;;;;-1.19;100.00;97639.03;5118078;27;20047;-85
2023/01/17 08:42:56;;;;;;;3.80;1.40;;;;;;;-0.68;100.00;97706.34;5115030;27;20051;-85
2023/01/17 08:45:23;;;;;;;2.92;1.50;;;;;;;-1.02;100.00;97642.66;5133230;27;20051;-85
2023/01/17 08:47:50;;;;;;;2.72;1.40;;;;;;;-0.90;100.00;97677.28;5107549;28;20044;-85
2023/01/17 08:50:20;;;;;;;4.63;1.40;;;;;;;-0.64;100.00;97694.22;5106403;27;20043;-85
2023/01/17 08:52:48;;;;;;;2.22;1.40;;;;;;;-0.44;100.00;97713.97;5101105;27;20582;-85
2023/01/17 08:55:15;;;;;;;1.85;1.35;;;;;;;-0.61;100.00;97676.94;5114864;27;20047;-86
2023/01/17 08:57:42;;;;;;;3.33;1.40;;;;;;;-0.54;100.00;97674.94;5129497;27;20058;-86
2023/01/17 09:00:09;;;;;;;1.50;1.17;;;;;;;-0.59;100.00;97671.72;5121543;27;20050;-86
2023/01/17 09:02:36;;;;;;;2.17;1.27;;;;;;;-0.56;100.00;97679.31;5131747;27;20078;-86
2023/01/17 09:05:03;;;;;;;2.28;1.40;;;;;;;-0.40;100.00;97700.09;5108328;28;20058;-86
2023/01/17 09:07:30;;;;;;;3.15;1.30;;;;;;;-0.33;100.00;97690.38;5123833;27;20058;-86
2023/01/17 09:09:57;;;;;;;1.63;1.30;;;;;;;-0.12;100.00;97691.22;5132672;27;20054;-86
2023/01/17 09:12:25;;;;;;;3.25;1.33;;;;;;;0.43;100.00;97696.50;5114070;27;20060;-86
2023/01/17 09:14:51;;;;;;;1.92;1.45;;;;;;;0.21;100.00;97672.63;5111180;28;20043;-84
2023/01/17 09:17:18;;;;;;;1.70;1.20;;;;;;;-0.16;100.00;97635.66;5113277;27;20051;-85
2023/01/17 09:19:47;;;;;;;1.30;1.10;;;;;;;-0.06;100.00;97691.75;5113836;28;20190;-85
2023/01/17 09:22:14;;;;;;;1.50;1.15;;;;;;;-0.06;100.00;97689.19;5111486;28;20096;-86
2023/01/17 09:24:41;;;;;;;1.60;1.30;;;;;;;-0.03;100.00;97688.25;5126133;27;20061;-86
2023/01/17 09:27:08;;;;;;;1.63;1.20;;;;;;;-0.15;100.00;97684.44;5113484;28;20043;-85
2023/01/17 09:29:34;;;;;;;2.28;1.30;;;;;;;0.13;100.00;97714.97;5114457;28;20048;-86
2023/01/17 09:32:01;;;;;;;15.45;13.38;;;;;;;-0.11;100.00;97695.44;5135694;28;20051;-87
2023/01/17 09:34:29;;;;;;;6.97;2.80;;;;;;;0.01;100.00;97697.47;5121663;28;20054;-86
2023/01/17 09:36:56;;;;;;;3.42;1.80;;;;;;;0.02;100.00;97686.31;5132344;28;20089;-86
2023/01/17 09:39:23;;;;;;;3.05;1.45;;;;;;;0.10;100.00;97694.50;5114588;28;20058;-86
2023/01/17 09:42:08;;;;;;;2.80;1.55;;;;;;;0.53;100.00;97745.81;5132260;28;20047;-86
2023/01/17 09:44:50;;;;;;;2.00;1.20;;;;;;;0.52;100.00;97726.13;5117601;28;20047;-86
2023/01/17 09:47:47;;;;;;;2.78;1.30;;;;;;;0.73;100.00;97750.09;5106700;27;20115;-87
2023/01/17 09:50:30;;;;;;;2.75;1.33;;;;;;;0.71;100.00;97723.56;5138744;27;20046;-85
2023/01/17 09:53:01;;;;;;;;;;;;;;;0.94;100.00;97748.28;5113438;28;20058;-86
2023/01/17 09:55:35;;;;;;;2.38;1.33;;;;;;;0.89;100.00;97758.78;5098485;28;19923;-85
2023/01/17 09:58:09;;;;;;;1.80;1.20;;;;;;;0.89;100.00;97745.91;5130007;27;20443;-85
2023/01/17 10:00:54;;;;;;;2.20;1.30;;;;;;;1.13;100.00;97759.38;5110618;27;20476;-85
2023/01/17 10:03:31;;;;;;;2.10;1.27;;;;;;;0.97;100.00;97722.34;5105112;27;20484;-86
2023/01/17 10:06:00;;;;;;;2.28;1.40;;;;;;;1.19;100.00;97757.41;5132723;27;20055;-85
2023/01/17 10:08:51;;;;;;;3.83;1.42;;;;;;;1.11;100.00;97719.94;5109260;27;20594;-86
2023/01/17 10:11:55;;;;;;;1.60;1.20;;;;;;;1.40;100.00;97747.81;5103363;27;20048;-86
2023/01/17 10:14:25;;;;;;;2.30;1.30;;;;;;;1.56;100.00;97748.75;5136151;27;20051;-85
2023/01/17 10:17:00;;;;;;;2.42;1.30;;;;;;;1.62;100.00;97745.03;5135048;27;20055;-85
2023/01/17 10:20:04;;;;;;;6.45;1.30;;;;;;;1.79;100.00;97747.63;5118268;27;20055;-86
2023/01/17 10:22:50;;;;;;;;;;;;;;;1.93;100.00;97749.53;5125859;27;20053;-86
2023/01/17 10:25:19;;;;;;;5.40;2.10;;;;;;;2.02;100.00;97749.06;5117703;27;19942;-86
2023/01/17 10:27:56;;;;;;;7.85;2.60;;;;;;;1.76;100.00;97703.09;5135266;27;20043;-86
2023/01/17 10:30:47;;;;;;;7.10;2.20;;;;;;;1.83;100.00;97699.28;5118347;27;20380;-86
2023/01/17 10:33:26;;;;;;;5.70;1.77;;;;;;;2.16;100.00;97745.78;5104738;27;20047;-86
2023/01/17 10:35:56;;;;;;;3.75;1.52;;;;;;;1.88;100.00;97708.47;5106744;27;20058;-85
2023/01/17 10:38:30;;;;;;;2.95;1.40;;;;;;;2.02;100.00;97692.28;5114631;27;20058;-86
2023/01/17 10:41:00;;;;;;;2.67;1.33;;;;;;;2.14;100.00;97708.88;5111265;28;20052;-85
2023/01/17 10:43:38;;;;;;;2.42;1.30;;;;;;;2.38;100.00;97727.41;5130573;27;20507;-85
2023/01/17 10:46:12;;;;;;;3.28;1.23;;;;;;;2.30;100.00;97718.41;5127057;27;20044;-87
2023/01/17 10:48:44;;;;;;;1.55;1.10;;;;;;;2.29;100.00;97715.00;5121269;27;20083;-85
2023/01/17 10:51:49;;;;;;;3.17;1.30;;;;;;;2.26;100.00;97735.78;5115095;27;20050;-86
2023/01/17 10:54:49;;;;;;;1.90;1.20;;;;;;;1.90;100.00;97718.72;5101175;28;20507;-86
2023/01/17 10:57:26;;;;;;;2.58;1.30;;;;;;;1.65;100.00;97701.88;5116826;27;20050;-86
2023/01/17 10:59:58;;;;;;;2.72;1.30;;;;;;;1.71;100.00;97740.25;5121048;27;20047;-85
2023/01/17 11:02:35;;;;;;;2.22;1.30;;;;;;;1.71;100.00;97724.78;5135959;27;20434;-85
2023/01/17 11:05:23;;;;;;;3.15;1.30;;;;;;;1.55;100.00;97695.50;5135990;27;20114;-86
2023/01/17 11:08:01;;;;;;;2.92;1.33;;;;;;;1.67;100.00;97731.00;5115308;27;20126;-85
2023/01/17 11:10:41;;;;;;;1.52;1.13;;;;;;;1.79;100.00;97734.72;5113797;28;20058;-85
2023/01/17 11:13:28;;;;;;;2.10;1.20;;;;;;;1.79;100.00;97731.28;5114217;27;20047;-86
2023/01/17 11:15:59;;;;;;;4.22;1.55;;;;;;;1.63;100.00;97702.84;5135874;27;20464;-86
2023/01/17 11:18:33;;;;;;;1.60;1.15;;;;;;;1.54;100.00;97711.91;5116344;27;20054;-85
2023/01/17 11:21:11;;;;;;;2.22;1.23;;;;;;;1.48;100.00;97692.38;5117540;27;20070;-86
2023/01/17 11:23:48;;;;;;;1.50;1.10;;;;;;;1.59;100.00;97730.53;5113207;28;20507;-86
2023/01/17 11:26:33;;;;;;;3.78;1.10;;;;;;;1.51;100.00;97724.94;5115616;27;20051;-86
2023/01/17 11:29:22;;;;;;;1.38;1.10;;;;;;;1.27;100.00;97681.38;5104512;27;20054;-85
2023/01/17 11:31:49;;;;;;;2.00;1.20;;;;;;;1.00;100.00;97660.38;5116887;27;20476;-85
2023/01/17 11:34:21;;;;;;;1.92;1.30;;;;;;;1.44;100.00;97713.25;5106763;28;20064;-86
2023/01/17 11:36:48;;;;;;;4.07;1.30;;;;;;;1.27;100.00;97690.88;5110936;27;20046;-86
2023/01/17 11:39:18;;;;;;;3.22;1.50;;;;;;;1.34;100.00;97702.56;5134581;27;20100;-85
2023/01/17 11:41:46;;;;;;;3.83;1.30;;;;;;;1.28;100.00;97711.41;5115819;27;20123;-86
2023/01/17 11:44:28;;;;;;;1.60;1.10;;;;;;;1.43;100.00;97699.50;5134989;27;20043;-85
2023/01/17 11:47:18;;;;;;;2.70;1.33;;;;;;;1.34;100.00;97697.41;5114499;27;20055;-85
2023/01/17 11:49:48;;;;;;;3.38;1.30;;;;;;;1.32;100.00;97674.25;5121202;27;20054;-85
2023/01/17 11:52:33;;;;;;;4.40;2.00;;;;;;;1.60;100.00;97684.97;5114133;28;20054;-85
2023/01/17 11:55:00;;;;;;;1.77;1.30;;;;;;;1.52;100.00;97631.19;5121352;27;20043;-84
2023/01/17 11:57:30;;;;;;;2.22;1.50;;;;;;;1.80;100.00;97682.22;5111780;27;20046;-85
2023/01/17 12:00:09;;;;;;;2.35;1.25;;;;;;;1.70;100.00;97643.16;5115892;27;20146;-85
2023/01/17 12:02:50;;;;;;;2.05;1.30;;;;;;;1.88;100.00;97661.19;5114628;27;20047;-85
2023/01/17 12:05:36;;;;;;;2.22;1.48;;;;;;;1.85;100.00;97646.69;5115769;27;20100;-86
2023/01/17 12:08:20;;;;;;;2.35;1.20;;;;;;;2.10;100.00;97671.22;5114646;27;20495;-85
2023/01/17 12:10:56;;;;;;;1.63;1.20;;;;;;;2.15;100.00;97656.34;5112366;28;20503;-85
2023/01/17 12:14:01;;;;;;;2.47;1.20;;;;;;;2.26;100.00;97650.59;5103035;27;20387;-85
2023/01/17 12:16:53;;;;;;;4.32;1.30;;;;;;;2.34;100.00;97647.59;5113916;27;20066;-85
2023/01/17 12:19:44;;;;;;;3.25;1.20;;;;;;;2.36;100.00;97649.22;5115863;27;20047;-84
2023/01/17 12:22:14;;;;;;;1.98;1.30;;;;;;;2.28;100.00;97652.22;5108150;28;20058;-85
2023/01/17 12:25:05;;;;;;;3.25;1.50;;;;;;;2.38;100.00;97662.03;5127197;27;20484;-85
2023/01/17 12:27:41;;;;;;;2.70;1.38;;;;;;;2.42;100.00;97653.19;5132932;27;20043;-86
2023/01/17 12:30:30;;;;;;;1.95;1.27;;;;;;;2.54;100.00;97657.72;5114504;27;20050;-85
2023/01/17 12:33:18;;;;;;;2.25;1.20;;;;;;;2.52;100.00;97651.78;5102144;28;20055;-86
2023/01/17 12:35:54;;;;;;;3.20;1.30;;;;;;;2.57;100.00;97623.97;5102832;27;20052;-86
2023/01/17 12:38:41;;;;;;;3.33;1.38;;;;;;;2.51;100.00;97659.63;5113278;27;20043;-86
2023/01/17 12:41:27;;;;;;;2.92;1.20;;;;;;;2.03;100.00;97585.53;5113771;28;20051;-84
2023/01/17 12:43:58;;;;;;;1.83;1.20;;;;;;;2.20;100.00;97614.81;5113491;28;20606;-85
2023/01/17 12:46:32;;;;;;;3.38;1.20;;;;;;;2.07;100.00;97602.56;5108072;27;20053;-86
2023/01/17 12:49:18;;;;;;;1.55;1.20;;;;;;;2.21;100.00;97601.81;5110132;27;20047;-86
2023/01/17 12:51:49;;;;;;;2.22;1.27;;;;;;;2.15;100.00;97588.41;5104804;28;20055;-82
2023/01/17 12:54:23;;;;;;;1.40;1.20;;;;;;;2.77;100.00;97653.88;5110779;27;20063;-83
2023/01/17 12:57:02;;;;;;;2.72;1.30;;;;;;;2.37;100.00;97625.03;5100772;27;20039;-83
2023/01/17 12:59:41;;;;;;;3.42;1.15;;;;;;;2.50;100.00;97660.53;5112688;27;20047;-82
2023/01/17 13:02:25;;;;;;;3.78;1.10;;;;;;;2.78;100.00;97658.13;5105825;27;20400;-83
2023/01/17 13:04:51;;;;;;;;;;;;;;;2.96;100.00;97655.44;5114945;27;20051;-83
2023/01/17 13:07:49;;;;;;;2.20;1.20;;;;;;;2.88;100.00;97650.69;5132499;27;20264;-83
2023/01/17 13:10:15;;;;;;;2.28;1.20;;;;;;;2.81;100.00;97654.53;5119657;27;20058;-83
2023/01/17 13:12:42;;;;;;;2.45;1.35;;;;;;;2.60;100.00;97608.31;5133758;27;20051;-83
2023/01/17 13:15:20;;;;;;;3.78;1.73;;;;;;;2.45;100.00;97599.63;5130519;27;20039;-82
2023/01/17 13:17:57;;;;;;;6.60;1.60;;;;;;;2.53;100.00;97619.88;5110336;27;20047;-82